Cleveland Hopkins International Airport
KCLE : rendu visible

Aérodrome :











RETROUVEZ-NOUS SUR...

 
LOGIN :

S'inscrire | Disclaimer

   EN    FR    IT 

 









Légende :    VFR   VFR Marginal   IFR   IFR Intensif   IFR Très Intensif
Visi : 
Plafond : 
>= 8 km
>= 3000ft
5 à 8 km
1000 à 3000 ft
1500m à 5 km
500 à 1000 ft
800 à 1500m
200 à 500 ft
< 800m
< 200 ft
Symboles :   Orages  Brouillard  Fortes neiges  Fortes précipitations  Vent > 20 kt






- Altitude de l'aérodrome : 791 ft
- Code IATA : CLE


KCLE - Cleveland Hopkins International

DERNIER METAR :
  • 222251Z 27007KT 10SM OVC029 02/M04 A3014 RMK AO2 SLP213 T00171044

METARs EXPIRÉS :
  • 222151Z 31009KT 10SM OVC029 03/M04 A3013 RMK AO2 SLP210 T00281044
  • 222051Z 32008KT 10SM OVC029 03/M04 A3013 RMK AO2 SLP207 T00281044 53011

TAF KCLE
Valide du 22 à 21h jusqu'au 24 à 00h UTC


222046Z 2221/2324 32012KT P6SM OVC028
FM222300 31007KT P6SM SCT028 BKN250
FM230100 27005KT P6SM SCT250
FM231700 VRB03KT P6SM BKN100



MET'MAP, la Météo Aéronautique d'un coup d'oeil ! - Copyright ORBIFLY Décembre 2007 - Disclaimer

ORBIFLY MET'MAP TEAM :

Programmation & Développement : Alexandra Zaïnal
Conception & Développement : Baudouin d'Aumeries
Co-Programmation & Développement : Marc-Olivier Méhu
Soutien technique & logistique : Manuel Goepfert

Contact : metmap@orbifly.com




SOURCES & CREDITS :

   NOAA       Earth
Advisory